Detroit, Michigan
Traffic Map
Current Weather Conditions
Detroit, Michigan
Broken Clouds
Broken Clouds
20°
Feels Like: 20°
Wind Chill: 20° Ceiling: 28000
Heat Index: 20° Visibility: 15mi
Dew Point: 13° Wind: 6mph
Humidity: 64% Direction: 330° (NNW)
Pressure: 30.17in Gusts: 0mph
Raw Report DataCYQG 231400Z 33005KT 270V360 15SM BKN280 20/13 A3017 RMK CI5 SLP217 DENSITY ALT 1100FT
Traffic Incident Summary
Active as of:
Severity:
Category:
InformationThere was an issue retrieving the traffic information for this location. Please try a different location or try again shortly.
Advertisements